sensor_id;sensor_type;location;lat;lon;timestamp;P1;durP1;ratioP1;P2;durP2;ratioP2
11008;SDS011;5557;51.670;7.788;2022-08-21T00:01:49;9.90;;;5.57;;
11008;SDS011;5557;51.670;7.788;2022-08-21T00:04:16;16.10;;;6.97;;
11008;SDS011;5557;51.670;7.788;2022-08-21T00:06:47;8.20;;;6.20;;
11008;SDS011;5557;51.670;7.788;2022-08-21T00:09:15;9.23;;;5.60;;
11008;SDS011;5557;51.670;7.788;2022-08-21T00:11:43;6.10;;;5.60;;
11008;SDS011;5557;51.670;7.788;2022-08-21T00:14:11;10.63;;;6.50;;
11008;SDS011;5557;51.670;7.788;2022-08-21T00:16:39;11.83;;;6.37;;
11008;SDS011;5557;51.670;7.788;2022-08-21T00:19:07;11.90;;;6.70;;
11008;SDS011;5557;51.670;7.788;2022-08-21T00:21:34;6.90;;;6.20;;
11008;SDS011;5557;51.670;7.788;2022-08-21T00:24:02;7.73;;;5.70;;
11008;SDS011;5557;51.670;7.788;2022-08-21T00:26:29;17.77;;;6.30;;
11008;SDS011;5557;51.670;7.788;2022-08-21T00:28:56;11.90;;;5.80;;
11008;SDS011;5557;51.670;7.788;2022-08-21T00:31:24;16.73;;;6.50;;
11008;SDS011;5557;51.670;7.788;2022-08-21T00:33:51;15.30;;;6.20;;
11008;SDS011;5557;51.670;7.788;2022-08-21T00:36:25;10.53;;;6.73;;
11008;SDS011;5557;51.670;7.788;2022-08-21T00:38:53;16.63;;;7.40;;
11008;SDS011;5557;51.670;7.788;2022-08-21T00:41:19;14.80;;;6.40;;
11008;SDS011;5557;51.670;7.788;2022-08-21T00:44:09;9.20;;;6.50;;
11008;SDS011;5557;51.670;7.788;2022-08-21T00:46:39;8.27;;;6.50;;
11008;SDS011;5557;51.670;7.788;2022-08-21T00:49:06;10.20;;;6.87;;
11008;SDS011;5557;51.670;7.788;2022-08-21T00:51:39;7.93;;;6.23;;
11008;SDS011;5557;51.670;7.788;2022-08-21T00:54:13;14.97;;;7.77;;
11008;SDS011;5557;51.670;7.788;2022-08-21T00:56:44;7.93;;;6.83;;
11008;SDS011;5557;51.670;7.788;2022-08-21T00:59:15;12.50;;;6.77;;
11008;SDS011;5557;51.670;7.788;2022-08-21T01:01:44;17.53;;;8.30;;
11008;SDS011;5557;51.670;7.788;2022-08-21T01:04:11;13.27;;;8.30;;
11008;SDS011;5557;51.670;7.788;2022-08-21T01:06:38;12.43;;;7.80;;
11008;SDS011;5557;51.670;7.788;2022-08-21T01:09:05;13.43;;;8.20;;
11008;SDS011;5557;51.670;7.788;2022-08-21T01:11:32;13.67;;;8.43;;
11008;SDS011;5557;51.670;7.788;2022-08-21T01:14:00;13.13;;;7.33;;
11008;SDS011;5557;51.670;7.788;2022-08-21T01:16:28;11.83;;;8.30;;
11008;SDS011;5557;51.670;7.788;2022-08-21T01:18:55;13.57;;;8.70;;
11008;SDS011;5557;51.670;7.788;2022-08-21T01:21:25;19.57;;;9.33;;
11008;SDS011;5557;51.670;7.788;2022-08-21T01:23:54;14.00;;;9.53;;
11008;SDS011;5557;51.670;7.788;2022-08-21T01:26:24;14.03;;;9.07;;
11008;SDS011;5557;51.670;7.788;2022-08-21T01:32:15;17.30;;;9.77;;
11008;SDS011;5557;51.670;7.788;2022-08-21T01:34:45;21.30;;;10.10;;
11008;SDS011;5557;51.670;7.788;2022-08-21T01:37:14;13.93;;;8.73;;
11008;SDS011;5557;51.670;7.788;2022-08-21T01:39:43;14.90;;;9.63;;
11008;SDS011;5557;51.670;7.788;2022-08-21T01:42:11;15.50;;;9.53;;
11008;SDS011;5557;51.670;7.788;2022-08-21T01:44:39;16.70;;;9.60;;
11008;SDS011;5557;51.670;7.788;2022-08-21T01:47:07;16.73;;;9.93;;
11008;SDS011;5557;51.670;7.788;2022-08-21T01:49:36;20.63;;;9.80;;
11008;SDS011;5557;51.670;7.788;2022-08-21T01:52:05;12.40;;;9.40;;
11008;SDS011;5557;51.670;7.788;2022-08-21T01:54:34;12.33;;;9.63;;
11008;SDS011;5557;51.670;7.788;2022-08-21T01:57:03;13.47;;;8.73;;
11008;SDS011;5557;51.670;7.788;2022-08-21T01:59:31;13.00;;;8.80;;
11008;SDS011;5557;51.670;7.788;2022-08-21T02:01:58;10.17;;;8.10;;
11008;SDS011;5557;51.670;7.788;2022-08-21T02:04:25;12.67;;;9.47;;
11008;SDS011;5557;51.670;7.788;2022-08-21T02:06:52;17.00;;;9.60;;
11008;SDS011;5557;51.670;7.788;2022-08-21T02:09:19;20.00;;;9.60;;
11008;SDS011;5557;51.670;7.788;2022-08-21T02:11:49;12.23;;;8.47;;
11008;SDS011;5557;51.670;7.788;2022-08-21T02:14:17;13.03;;;7.43;;
11008;SDS011;5557;51.670;7.788;2022-08-21T02:16:57;11.50;;;7.80;;
11008;SDS011;5557;51.670;7.788;2022-08-21T02:19:35;17.60;;;8.27;;
11008;SDS011;5557;51.670;7.788;2022-08-21T02:22:06;27.90;;;8.00;;
11008;SDS011;5557;51.670;7.788;2022-08-21T02:24:37;17.27;;;8.67;;
11008;SDS011;5557;51.670;7.788;2022-08-21T02:27:20;15.37;;;7.87;;
11008;SDS011;5557;51.670;7.788;2022-08-21T02:29:52;13.10;;;9.03;;
11008;SDS011;5557;51.670;7.788;2022-08-21T02:32:21;12.47;;;8.63;;
11008;SDS011;5557;51.670;7.788;2022-08-21T02:34:48;15.27;;;7.70;;
11008;SDS011;5557;51.670;7.788;2022-08-21T02:37:16;14.27;;;9.13;;
11008;SDS011;5557;51.670;7.788;2022-08-21T02:39:42;9.53;;;8.53;;
11008;SDS011;5557;51.670;7.788;2022-08-21T02:42:09;16.50;;;8.70;;
11008;SDS011;5557;51.670;7.788;2022-08-21T02:44:36;16.27;;;9.50;;
11008;SDS011;5557;51.670;7.788;2022-08-21T02:47:03;21.17;;;10.10;;
11008;SDS011;5557;51.670;7.788;2022-08-21T02:49:31;16.70;;;9.97;;
11008;SDS011;5557;51.670;7.788;2022-08-21T02:51:57;13.37;;;8.77;;
11008;SDS011;5557;51.670;7.788;2022-08-21T02:54:25;15.87;;;9.40;;
11008;SDS011;5557;51.670;7.788;2022-08-21T02:56:52;14.37;;;10.07;;
11008;SDS011;5557;51.670;7.788;2022-08-21T02:59:19;14.80;;;9.83;;
11008;SDS011;5557;51.670;7.788;2022-08-21T03:01:46;21.23;;;10.40;;
11008;SDS011;5557;51.670;7.788;2022-08-21T03:04:13;19.90;;;9.70;;
11008;SDS011;5557;51.670;7.788;2022-08-21T03:06:40;11.70;;;8.97;;
11008;SDS011;5557;51.670;7.788;2022-08-21T03:09:07;18.20;;;10.30;;
11008;SDS011;5557;51.670;7.788;2022-08-21T03:11:33;11.90;;;9.40;;
11008;SDS011;5557;51.670;7.788;2022-08-21T03:14:03;14.30;;;10.00;;
11008;SDS011;5557;51.670;7.788;2022-08-21T03:16:32;13.60;;;9.60;;
11008;SDS011;5557;51.670;7.788;2022-08-21T03:19:00;13.43;;;10.10;;
11008;SDS011;5557;51.670;7.788;2022-08-21T03:21:28;13.00;;;10.47;;
11008;SDS011;5557;51.670;7.788;2022-08-21T03:23:55;18.20;;;10.10;;
11008;SDS011;5557;51.670;7.788;2022-08-21T03:26:22;17.13;;;11.30;;
11008;SDS011;5557;51.670;7.788;2022-08-21T03:28:50;14.90;;;10.40;;
11008;SDS011;5557;51.670;7.788;2022-08-21T03:31:17;14.83;;;10.70;;
11008;SDS011;5557;51.670;7.788;2022-08-21T03:33:44;15.97;;;11.50;;
11008;SDS011;5557;51.670;7.788;2022-08-21T03:36:11;25.00;;;10.97;;
11008;SDS011;5557;51.670;7.788;2022-08-21T03:38:38;17.97;;;11.47;;
11008;SDS011;5557;51.670;7.788;2022-08-21T03:41:06;20.83;;;12.33;;
11008;SDS011;5557;51.670;7.788;2022-08-21T03:43:34;17.83;;;11.50;;
11008;SDS011;5557;51.670;7.788;2022-08-21T03:46:02;23.17;;;12.53;;
11008;SDS011;5557;51.670;7.788;2022-08-21T03:48:30;20.20;;;13.10;;
11008;SDS011;5557;51.670;7.788;2022-08-21T03:50:57;18.63;;;13.27;;
11008;SDS011;5557;51.670;7.788;2022-08-21T03:53:24;17.33;;;12.97;;
11008;SDS011;5557;51.670;7.788;2022-08-21T03:55:52;16.70;;;12.60;;
11008;SDS011;5557;51.670;7.788;2022-08-21T03:58:20;21.97;;;13.47;;
11008;SDS011;5557;51.670;7.788;2022-08-21T04:00:50;16.87;;;13.07;;
11008;SDS011;5557;51.670;7.788;2022-08-21T04:03:18;20.90;;;14.33;;
11008;SDS011;5557;51.670;7.788;2022-08-21T04:05:46;26.70;;;14.33;;
11008;SDS011;5557;51.670;7.788;2022-08-21T04:08:13;19.07;;;12.60;;
11008;SDS011;5557;51.670;7.788;2022-08-21T04:10:43;19.87;;;14.73;;
11008;SDS011;5557;51.670;7.788;2022-08-21T04:13:12;32.07;;;14.97;;
11008;SDS011;5557;51.670;7.788;2022-08-21T04:15:41;18.10;;;13.97;;
11008;SDS011;5557;51.670;7.788;2022-08-21T04:18:09;19.57;;;14.70;;
11008;SDS011;5557;51.670;7.788;2022-08-21T04:20:36;24.30;;;14.73;;
11008;SDS011;5557;51.670;7.788;2022-08-21T04:23:04;19.80;;;14.37;;
11008;SDS011;5557;51.670;7.788;2022-08-21T04:25:31;19.27;;;14.93;;
11008;SDS011;5557;51.670;7.788;2022-08-21T04:27:59;20.27;;;15.20;;
11008;SDS011;5557;51.670;7.788;2022-08-21T04:30:29;25.47;;;16.63;;
11008;SDS011;5557;51.670;7.788;2022-08-21T04:32:57;18.87;;;14.67;;
11008;SDS011;5557;51.670;7.788;2022-08-21T04:35:25;15.43;;;13.77;;
11008;SDS011;5557;51.670;7.788;2022-08-21T04:37:54;36.83;;;16.47;;
11008;SDS011;5557;51.670;7.788;2022-08-21T04:40:21;20.40;;;15.20;;
11008;SDS011;5557;51.670;7.788;2022-08-21T04:42:55;19.07;;;15.03;;
11008;SDS011;5557;51.670;7.788;2022-08-21T04:45:29;24.17;;;16.37;;
11008;SDS011;5557;51.670;7.788;2022-08-21T04:48:02;28.07;;;15.90;;
11008;SDS011;5557;51.670;7.788;2022-08-21T04:53:48;31.50;;;17.93;;
11008;SDS011;5557;51.670;7.788;2022-08-21T04:56:24;21.43;;;16.70;;
11008;SDS011;5557;51.670;7.788;2022-08-21T04:58:55;25.60;;;16.60;;
11008;SDS011;5557;51.670;7.788;2022-08-21T05:01:25;27.53;;;15.93;;
11008;SDS011;5557;51.670;7.788;2022-08-21T05:03:56;25.83;;;15.13;;
11008;SDS011;5557;51.670;7.788;2022-08-21T05:06:26;22.87;;;15.10;;
11008;SDS011;5557;51.670;7.788;2022-08-21T05:08:56;21.50;;;14.43;;
11008;SDS011;5557;51.670;7.788;2022-08-21T05:11:27;17.70;;;12.63;;
11008;SDS011;5557;51.670;7.788;2022-08-21T05:13:56;21.17;;;12.63;;
11008;SDS011;5557;51.670;7.788;2022-08-21T05:16:23;23.20;;;12.73;;
11008;SDS011;5557;51.670;7.788;2022-08-21T05:19:03;16.83;;;12.17;;
11008;SDS011;5557;51.670;7.788;2022-08-21T05:21:33;18.57;;;11.37;;
11008;SDS011;5557;51.670;7.788;2022-08-21T05:24:01;23.53;;;10.50;;
11008;SDS011;5557;51.670;7.788;2022-08-21T05:26:29;15.90;;;9.97;;
11008;SDS011;5557;51.670;7.788;2022-08-21T05:28:56;13.47;;;10.10;;
11008;SDS011;5557;51.670;7.788;2022-08-21T05:31:23;16.53;;;9.33;;
11008;SDS011;5557;51.670;7.788;2022-08-21T05:33:50;11.57;;;9.97;;
11008;SDS011;5557;51.670;7.788;2022-08-21T05:36:18;16.53;;;9.00;;
11008;SDS011;5557;51.670;7.788;2022-08-21T05:38:45;11.10;;;8.70;;
11008;SDS011;5557;51.670;7.788;2022-08-21T05:41:12;23.23;;;8.87;;
11008;SDS011;5557;51.670;7.788;2022-08-21T05:43:39;12.97;;;8.00;;
11008;SDS011;5557;51.670;7.788;2022-08-21T05:46:06;10.00;;;8.20;;
11008;SDS011;5557;51.670;7.788;2022-08-21T05:48:35;15.13;;;8.10;;
11008;SDS011;5557;51.670;7.788;2022-08-21T05:51:06;8.70;;;7.67;;
11008;SDS011;5557;51.670;7.788;2022-08-21T05:53:35;11.20;;;8.30;;
11008;SDS011;5557;51.670;7.788;2022-08-21T05:56:03;15.23;;;6.87;;
11008;SDS011;5557;51.670;7.788;2022-08-21T05:58:31;13.60;;;7.33;;
11008;SDS011;5557;51.670;7.788;2022-08-21T06:00:59;9.07;;;6.93;;
11008;SDS011;5557;51.670;7.788;2022-08-21T06:03:29;20.13;;;6.70;;
11008;SDS011;5557;51.670;7.788;2022-08-21T06:05:58;10.47;;;6.90;;
11008;SDS011;5557;51.670;7.788;2022-08-21T06:08:25;9.00;;;6.90;;
11008;SDS011;5557;51.670;7.788;2022-08-21T06:10:53;15.30;;;6.40;;
11008;SDS011;5557;51.670;7.788;2022-08-21T06:13:22;9.03;;;5.80;;
11008;SDS011;5557;51.670;7.788;2022-08-21T06:15:50;10.60;;;7.67;;
11008;SDS011;5557;51.670;7.788;2022-08-21T06:18:26;9.93;;;6.67;;
11008;SDS011;5557;51.670;7.788;2022-08-21T06:20:53;6.63;;;5.50;;
11008;SDS011;5557;51.670;7.788;2022-08-21T06:23:23;7.13;;;6.07;;
11008;SDS011;5557;51.670;7.788;2022-08-21T06:25:58;10.57;;;6.17;;
11008;SDS011;5557;51.670;7.788;2022-08-21T06:28:26;7.40;;;6.00;;
11008;SDS011;5557;51.670;7.788;2022-08-21T06:30:53;7.00;;;5.43;;
11008;SDS011;5557;51.670;7.788;2022-08-21T06:33:21;9.27;;;5.90;;
11008;SDS011;5557;51.670;7.788;2022-08-21T06:35:48;13.43;;;4.63;;
11008;SDS011;5557;51.670;7.788;2022-08-21T06:38:15;10.60;;;5.50;;
11008;SDS011;5557;51.670;7.788;2022-08-21T06:40:42;8.53;;;5.30;;
11008;SDS011;5557;51.670;7.788;2022-08-21T06:43:14;7.40;;;5.40;;
11008;SDS011;5557;51.670;7.788;2022-08-21T06:45:42;7.03;;;5.40;;
11008;SDS011;5557;51.670;7.788;2022-08-21T06:48:09;9.80;;;5.00;;
11008;SDS011;5557;51.670;7.788;2022-08-21T06:50:43;5.80;;;5.00;;
11008;SDS011;5557;51.670;7.788;2022-08-21T06:53:11;10.03;;;4.73;;
11008;SDS011;5557;51.670;7.788;2022-08-21T06:55:39;5.10;;;4.60;;
11008;SDS011;5557;51.670;7.788;2022-08-21T06:58:08;5.50;;;4.50;;
11008;SDS011;5557;51.670;7.788;2022-08-21T07:00:38;7.50;;;5.33;;
11008;SDS011;5557;51.670;7.788;2022-08-21T07:03:07;6.93;;;4.30;;
11008;SDS011;5557;51.670;7.788;2022-08-21T07:05:42;5.67;;;4.30;;
11008;SDS011;5557;51.670;7.788;2022-08-21T07:08:09;6.27;;;4.60;;
11008;SDS011;5557;51.670;7.788;2022-08-21T07:10:36;3.53;;;3.23;;
11008;SDS011;5557;51.670;7.788;2022-08-21T07:13:03;6.67;;;3.63;;
11008;SDS011;5557;51.670;7.788;2022-08-21T07:15:30;11.53;;;4.70;;
11008;SDS011;5557;51.670;7.788;2022-08-21T07:17:58;5.63;;;4.10;;
11008;SDS011;5557;51.670;7.788;2022-08-21T07:20:26;4.30;;;3.60;;
11008;SDS011;5557;51.670;7.788;2022-08-21T07:22:54;7.40;;;3.80;;
11008;SDS011;5557;51.670;7.788;2022-08-21T07:25:23;7.77;;;3.90;;
11008;SDS011;5557;51.670;7.788;2022-08-21T07:27:50;7.10;;;4.00;;
11008;SDS011;5557;51.670;7.788;2022-08-21T07:30:17;4.80;;;3.10;;
11008;SDS011;5557;51.670;7.788;2022-08-21T07:32:45;5.40;;;3.77;;
11008;SDS011;5557;51.670;7.788;2022-08-21T07:35:12;7.37;;;3.90;;
11008;SDS011;5557;51.670;7.788;2022-08-21T07:37:39;8.20;;;3.50;;
11008;SDS011;5557;51.670;7.788;2022-08-21T07:40:06;4.87;;;3.90;;
11008;SDS011;5557;51.670;7.788;2022-08-21T07:42:39;3.80;;;3.40;;
11008;SDS011;5557;51.670;7.788;2022-08-21T07:45:07;3.92;;;3.63;;
11008;SDS011;5557;51.670;7.788;2022-08-21T07:47:35;8.98;;;4.00;;
11008;SDS011;5557;51.670;7.788;2022-08-21T07:50:08;10.47;;;4.57;;
11008;SDS011;5557;51.670;7.788;2022-08-21T07:52:37;5.10;;;4.57;;
11008;SDS011;5557;51.670;7.788;2022-08-21T07:55:06;4.63;;;3.65;;
11008;SDS011;5557;51.670;7.788;2022-08-21T07:57:35;4.68;;;3.90;;
11008;SDS011;5557;51.670;7.788;2022-08-21T08:00:05;4.15;;;3.85;;
11008;SDS011;5557;51.670;7.788;2022-08-21T08:02:35;5.47;;;3.95;;
11008;SDS011;5557;51.670;7.788;2022-08-21T08:05:06;4.97;;;4.15;;
11008;SDS011;5557;51.670;7.788;2022-08-21T08:07:37;5.78;;;3.88;;
11008;SDS011;5557;51.670;7.788;2022-08-21T08:10:05;7.35;;;3.47;;
11008;SDS011;5557;51.670;7.788;2022-08-21T08:12:34;6.70;;;3.70;;
11008;SDS011;5557;51.670;7.788;2022-08-21T08:15:05;5.18;;;3.42;;
11008;SDS011;5557;51.670;7.788;2022-08-21T08:17:34;6.35;;;4.75;;
11008;SDS011;5557;51.670;7.788;2022-08-21T08:20:02;4.28;;;3.97;;
11008;SDS011;5557;51.670;7.788;2022-08-21T08:22:29;19.92;;;3.75;;
11008;SDS011;5557;51.670;7.788;2022-08-21T08:24:56;6.32;;;3.38;;
11008;SDS011;5557;51.670;7.788;2022-08-21T08:27:24;6.50;;;5.18;;
11008;SDS011;5557;51.670;7.788;2022-08-21T08:29:51;9.07;;;4.65;;
11008;SDS011;5557;51.670;7.788;2022-08-21T08:32:18;4.97;;;3.90;;
11008;SDS011;5557;51.670;7.788;2022-08-21T08:34:46;5.40;;;4.90;;
11008;SDS011;5557;51.670;7.788;2022-08-21T08:37:15;4.22;;;3.40;;
11008;SDS011;5557;51.670;7.788;2022-08-21T08:39:43;5.47;;;3.88;;
11008;SDS011;5557;51.670;7.788;2022-08-21T08:42:22;4.78;;;3.97;;
11008;SDS011;5557;51.670;7.788;2022-08-21T08:45:07;11.68;;;3.80;;
11008;SDS011;5557;51.670;7.788;2022-08-21T08:47:40;5.07;;;4.63;;
11008;SDS011;5557;51.670;7.788;2022-08-21T08:50:12;5.22;;;4.10;;
11008;SDS011;5557;51.670;7.788;2022-08-21T08:52:48;6.25;;;4.35;;
11008;SDS011;5557;51.670;7.788;2022-08-21T08:55:25;5.30;;;3.80;;
11008;SDS011;5557;51.670;7.788;2022-08-21T08:57:58;12.63;;;4.72;;
11008;SDS011;5557;51.670;7.788;2022-08-21T09:00:25;10.40;;;3.78;;
11008;SDS011;5557;51.670;7.788;2022-08-21T09:02:54;7.90;;;3.60;;
11008;SDS011;5557;51.670;7.788;2022-08-21T09:10:22;6.90;;;3.50;;
11008;SDS011;5557;51.670;7.788;2022-08-21T09:13:19;7.75;;;3.22;;
11008;SDS011;5557;51.670;7.788;2022-08-21T09:15:57;6.35;;;2.45;;
11008;SDS011;5557;51.670;7.788;2022-08-21T09:21:54;5.65;;;3.03;;
11008;SDS011;5557;51.670;7.788;2022-08-21T09:24:44;5.10;;;1.92;;
11008;SDS011;5557;51.670;7.788;2022-08-21T09:27:41;4.80;;;2.40;;
11008;SDS011;5557;51.670;7.788;2022-08-21T09:30:08;4.40;;;3.53;;
11008;SDS011;5557;51.670;7.788;2022-08-21T09:32:37;3.95;;;2.50;;
11008;SDS011;5557;51.670;7.788;2022-08-21T09:35:10;4.07;;;2.65;;
11008;SDS011;5557;51.670;7.788;2022-08-21T09:41:00;3.23;;;2.77;;
11008;SDS011;5557;51.670;7.788;2022-08-21T09:43:30;8.30;;;3.03;;
11008;SDS011;5557;51.670;7.788;2022-08-21T09:46:05;4.75;;;3.20;;
11008;SDS011;5557;51.670;7.788;2022-08-21T09:49:11;4.28;;;2.67;;
11008;SDS011;5557;51.670;7.788;2022-08-21T09:51:40;5.38;;;2.30;;
11008;SDS011;5557;51.670;7.788;2022-08-21T09:54:18;10.70;;;2.53;;
11008;SDS011;5557;51.670;7.788;2022-08-21T09:56:56;4.03;;;2.80;;
11008;SDS011;5557;51.670;7.788;2022-08-21T09:59:50;6.65;;;3.03;;
11008;SDS011;5557;51.670;7.788;2022-08-21T10:05:17;2.78;;;1.92;;
11008;SDS011;5557;51.670;7.788;2022-08-21T10:07:47;2.95;;;2.05;;
11008;SDS011;5557;51.670;7.788;2022-08-21T10:10:19;4.60;;;2.08;;
11008;SDS011;5557;51.670;7.788;2022-08-21T10:13:06;4.88;;;2.20;;
11008;SDS011;5557;51.670;7.788;2022-08-21T10:19:18;3.92;;;1.55;;
11008;SDS011;5557;51.670;7.788;2022-08-21T10:24:33;3.85;;;2.00;;
11008;SDS011;5557;51.670;7.788;2022-08-21T10:27:25;2.85;;;1.45;;
11008;SDS011;5557;51.670;7.788;2022-08-21T10:33:23;6.15;;;1.85;;
11008;SDS011;5557;51.670;7.788;2022-08-21T10:36:19;6.80;;;1.50;;
11008;SDS011;5557;51.670;7.788;2022-08-21T10:38:54;7.80;;;1.90;;
11008;SDS011;5557;51.670;7.788;2022-08-21T10:42:00;5.73;;;1.60;;
11008;SDS011;5557;51.670;7.788;2022-08-21T10:47:57;1.77;;;1.55;;
11008;SDS011;5557;51.670;7.788;2022-08-21T10:50:42;6.07;;;1.20;;
11008;SDS011;5557;51.670;7.788;2022-08-21T10:53:33;5.20;;;1.30;;
11008;SDS011;5557;51.670;7.788;2022-08-21T10:56:13;2.75;;;1.30;;
11008;SDS011;5557;51.670;7.788;2022-08-21T10:59:41;3.22;;;1.60;;
11008;SDS011;5557;51.670;7.788;2022-08-21T11:01:59;5.60;;;1.90;;
11008;SDS011;5557;51.670;7.788;2022-08-21T11:04:55;6.57;;;1.42;;
11008;SDS011;5557;51.670;7.788;2022-08-21T11:07:39;4.70;;;1.40;;
11008;SDS011;5557;51.670;7.788;2022-08-21T11:10:40;1.73;;;0.93;;
11008;SDS011;5557;51.670;7.788;2022-08-21T11:13:38;5.18;;;1.55;;
11008;SDS011;5557;51.670;7.788;2022-08-21T11:16:24;7.75;;;1.17;;
11008;SDS011;5557;51.670;7.788;2022-08-21T11:19:20;1.10;;;0.93;;
11008;SDS011;5557;51.670;7.788;2022-08-21T11:21:56;4.60;;;1.45;;
11008;SDS011;5557;51.670;7.788;2022-08-21T11:25:26;3.22;;;1.30;;
11008;SDS011;5557;51.670;7.788;2022-08-21T11:27:43;1.65;;;1.20;;
11008;SDS011;5557;51.670;7.788;2022-08-21T11:30:21;1.15;;;0.80;;
11008;SDS011;5557;51.670;7.788;2022-08-21T11:33:01;1.67;;;1.00;;
11008;SDS011;5557;51.670;7.788;2022-08-21T11:35:44;4.80;;;1.45;;
11008;SDS011;5557;51.670;7.788;2022-08-21T11:38:35;2.13;;;1.20;;
11008;SDS011;5557;51.670;7.788;2022-08-21T11:41:28;1.75;;;1.00;;
11008;SDS011;5557;51.670;7.788;2022-08-21T11:50:20;3.90;;;1.50;;
11008;SDS011;5557;51.670;7.788;2022-08-21T11:53:10;2.10;;;1.23;;
11008;SDS011;5557;51.670;7.788;2022-08-21T11:55:43;8.02;;;1.40;;
11008;SDS011;5557;51.670;7.788;2022-08-21T11:58:43;2.55;;;1.33;;
11008;SDS011;5557;51.670;7.788;2022-08-21T12:01:20;2.95;;;1.08;;
11008;SDS011;5557;51.670;7.788;2022-08-21T12:04:04;1.33;;;0.90;;
11008;SDS011;5557;51.670;7.788;2022-08-21T12:06:37;3.25;;;1.05;;
11008;SDS011;5557;51.670;7.788;2022-08-21T12:09:10;1.40;;;0.73;;
11008;SDS011;5557;51.670;7.788;2022-08-21T12:18:03;2.17;;;1.00;;
11008;SDS011;5557;51.670;7.788;2022-08-21T12:21:49;2.67;;;1.10;;
11008;SDS011;5557;51.670;7.788;2022-08-21T12:23:59;2.05;;;0.93;;
11008;SDS011;5557;51.670;7.788;2022-08-21T12:26:33;1.83;;;0.98;;
11008;SDS011;5557;51.670;7.788;2022-08-21T12:29:22;1.05;;;0.95;;
11008;SDS011;5557;51.670;7.788;2022-08-21T12:31:59;0.98;;;0.70;;
11008;SDS011;5557;51.670;7.788;2022-08-21T12:34:49;2.67;;;0.98;;
11008;SDS011;5557;51.670;7.788;2022-08-21T12:37:23;1.40;;;1.20;;
11008;SDS011;5557;51.670;7.788;2022-08-21T12:39:57;1.85;;;0.75;;
11008;SDS011;5557;51.670;7.788;2022-08-21T12:42:41;1.30;;;0.75;;
11008;SDS011;5557;51.670;7.788;2022-08-21T12:45:33;1.13;;;0.60;;
11008;SDS011;5557;51.670;7.788;2022-08-21T12:51:34;1.42;;;0.60;;
11008;SDS011;5557;51.670;7.788;2022-08-21T12:53:58;2.03;;;0.65;;
11008;SDS011;5557;51.670;7.788;2022-08-21T12:56:27;0.80;;;0.50;;
11008;SDS011;5557;51.670;7.788;2022-08-21T12:59:06;0.90;;;0.60;;
11008;SDS011;5557;51.670;7.788;2022-08-21T13:01:47;1.42;;;1.33;;
11008;SDS011;5557;51.670;7.788;2022-08-21T13:04:32;2.45;;;0.70;;
11008;SDS011;5557;51.670;7.788;2022-08-21T13:07:05;1.17;;;0.77;;
11008;SDS011;5557;51.670;7.788;2022-08-21T13:09:33;1.15;;;0.60;;
11008;SDS011;5557;51.670;7.788;2022-08-21T13:12:00;2.75;;;0.65;;
11008;SDS011;5557;51.670;7.788;2022-08-21T13:14:29;4.63;;;0.60;;
11008;SDS011;5557;51.670;7.788;2022-08-21T13:17:11;1.02;;;0.70;;
11008;SDS011;5557;51.670;7.788;2022-08-21T13:19:53;2.22;;;0.63;;
11008;SDS011;5557;51.670;7.788;2022-08-21T13:22:25;1.10;;;0.68;;
11008;SDS011;5557;51.670;7.788;2022-08-21T13:24:59;2.03;;;1.40;;
11008;SDS011;5557;51.670;7.788;2022-08-21T13:27:32;1.25;;;0.70;;
11008;SDS011;5557;51.670;7.788;2022-08-21T13:30:09;4.75;;;1.35;;
11008;SDS011;5557;51.670;7.788;2022-08-21T13:32:43;4.32;;;0.57;;
11008;SDS011;5557;51.670;7.788;2022-08-21T13:35:14;2.67;;;0.88;;
11008;SDS011;5557;51.670;7.788;2022-08-21T13:37:47;1.35;;;0.70;;
11008;SDS011;5557;51.670;7.788;2022-08-21T13:43:30;3.72;;;0.70;;
11008;SDS011;5557;51.670;7.788;2022-08-21T13:45:59;1.92;;;0.95;;
11008;SDS011;5557;51.670;7.788;2022-08-21T13:48:28;3.20;;;1.13;;
11008;SDS011;5557;51.670;7.788;2022-08-21T13:50:59;2.28;;;0.60;;
11008;SDS011;5557;51.670;7.788;2022-08-21T13:53:28;1.30;;;0.80;;
11008;SDS011;5557;51.670;7.788;2022-08-21T13:55:58;1.17;;;0.80;;
11008;SDS011;5557;51.670;7.788;2022-08-21T14:00:55;1.33;;;0.68;;
11008;SDS011;5557;51.670;7.788;2022-08-21T14:03:34;0.90;;;0.50;;
11008;SDS011;5557;51.670;7.788;2022-08-21T14:06:17;1.00;;;0.60;;
11008;SDS011;5557;51.670;7.788;2022-08-21T14:08:51;1.42;;;0.73;;
11008;SDS011;5557;51.670;7.788;2022-08-21T14:11:21;8.32;;;1.02;;
11008;SDS011;5557;51.670;7.788;2022-08-21T14:13:51;3.38;;;0.90;;
11008;SDS011;5557;51.670;7.788;2022-08-21T14:16:25;7.45;;;0.90;;
11008;SDS011;5557;51.670;7.788;2022-08-21T14:21:50;2.97;;;0.70;;
11008;SDS011;5557;51.670;7.788;2022-08-21T14:24:27;1.30;;;0.80;;
11008;SDS011;5557;51.670;7.788;2022-08-21T14:27:06;1.80;;;0.70;;
11008;SDS011;5557;51.670;7.788;2022-08-21T14:29:38;1.80;;;1.03;;
11008;SDS011;5557;51.670;7.788;2022-08-21T14:32:11;1.20;;;0.70;;
11008;SDS011;5557;51.670;7.788;2022-08-21T14:34:50;2.97;;;0.60;;
11008;SDS011;5557;51.670;7.788;2022-08-21T14:37:17;5.70;;;0.60;;
11008;SDS011;5557;51.670;7.788;2022-08-21T14:39:44;2.10;;;0.97;;
11008;SDS011;5557;51.670;7.788;2022-08-21T14:42:12;1.83;;;0.70;;
11008;SDS011;5557;51.670;7.788;2022-08-21T14:44:39;1.50;;;0.77;;
11008;SDS011;5557;51.670;7.788;2022-08-21T14:47:06;2.27;;;1.00;;
11008;SDS011;5557;51.670;7.788;2022-08-21T14:49:34;1.67;;;0.90;;
11008;SDS011;5557;51.670;7.788;2022-08-21T14:52:01;6.77;;;1.13;;
11008;SDS011;5557;51.670;7.788;2022-08-21T14:54:29;2.20;;;1.03;;
11008;SDS011;5557;51.670;7.788;2022-08-21T14:56:58;2.53;;;1.10;;
11008;SDS011;5557;51.670;7.788;2022-08-21T14:59:31;2.37;;;1.20;;
11008;SDS011;5557;51.670;7.788;2022-08-21T15:01:59;1.00;;;0.73;;
11008;SDS011;5557;51.670;7.788;2022-08-21T15:04:27;2.17;;;1.60;;
11008;SDS011;5557;51.670;7.788;2022-08-21T15:06:54;2.13;;;1.30;;
11008;SDS011;5557;51.670;7.788;2022-08-21T15:09:21;3.20;;;1.20;;
11008;SDS011;5557;51.670;7.788;2022-08-21T15:11:48;1.67;;;1.27;;
11008;SDS011;5557;51.670;7.788;2022-08-21T15:14:20;2.33;;;1.10;;
11008;SDS011;5557;51.670;7.788;2022-08-21T15:16:50;9.73;;;1.23;;
11008;SDS011;5557;51.670;7.788;2022-08-21T15:19:17;2.30;;;1.13;;
11008;SDS011;5557;51.670;7.788;2022-08-21T15:21:45;4.23;;;1.37;;
11008;SDS011;5557;51.670;7.788;2022-08-21T15:24:12;2.40;;;1.10;;
11008;SDS011;5557;51.670;7.788;2022-08-21T15:26:39;2.70;;;1.17;;
11008;SDS011;5557;51.670;7.788;2022-08-21T15:29:06;1.70;;;0.83;;
11008;SDS011;5557;51.670;7.788;2022-08-21T15:31:34;1.70;;;1.40;;
11008;SDS011;5557;51.670;7.788;2022-08-21T15:34:02;6.60;;;1.60;;
11008;SDS011;5557;51.670;7.788;2022-08-21T15:36:29;1.30;;;1.13;;
11008;SDS011;5557;51.670;7.788;2022-08-21T15:38:56;4.33;;;1.70;;
11008;SDS011;5557;51.670;7.788;2022-08-21T15:41:23;3.87;;;2.47;;
11008;SDS011;5557;51.670;7.788;2022-08-21T15:43:51;2.17;;;1.10;;
11008;SDS011;5557;51.670;7.788;2022-08-21T15:46:19;2.03;;;1.40;;
11008;SDS011;5557;51.670;7.788;2022-08-21T15:48:47;1.83;;;1.50;;
11008;SDS011;5557;51.670;7.788;2022-08-21T15:51:15;5.10;;;1.33;;
11008;SDS011;5557;51.670;7.788;2022-08-21T15:53:43;3.63;;;1.70;;
11008;SDS011;5557;51.670;7.788;2022-08-21T15:56:53;3.00;;;1.87;;
11008;SDS011;5557;51.670;7.788;2022-08-21T15:59:13;1.77;;;1.33;;
11008;SDS011;5557;51.670;7.788;2022-08-21T16:01:43;2.60;;;1.00;;
11008;SDS011;5557;51.670;7.788;2022-08-21T16:04:15;1.70;;;1.30;;
11008;SDS011;5557;51.670;7.788;2022-08-21T16:06:52;3.47;;;1.00;;
11008;SDS011;5557;51.670;7.788;2022-08-21T16:09:29;3.43;;;1.47;;
11008;SDS011;5557;51.670;7.788;2022-08-21T16:11:56;3.13;;;0.80;;
11008;SDS011;5557;51.670;7.788;2022-08-21T16:14:24;1.40;;;1.27;;
11008;SDS011;5557;51.670;7.788;2022-08-21T16:16:51;2.90;;;1.20;;
11008;SDS011;5557;51.670;7.788;2022-08-21T16:19:19;1.43;;;0.80;;
11008;SDS011;5557;51.670;7.788;2022-08-21T16:21:47;2.33;;;0.90;;